sensor_id;sensor_type;location;lat;lon;timestamp;P1;durP1;ratioP1;P2;durP2;ratioP2
48317;SDS011;34127;47.412;9.730;2023-09-08T00:00:10;15.20;;;11.45;;
48317;SDS011;34127;47.412;9.730;2023-09-08T00:02:36;13.95;;;10.90;;
48317;SDS011;34127;47.412;9.730;2023-09-08T00:05:02;14.93;;;11.90;;
48317;SDS011;34127;47.412;9.730;2023-09-08T00:07:29;13.93;;;10.95;;
48317;SDS011;34127;47.412;9.730;2023-09-08T00:09:55;14.45;;;11.05;;
48317;SDS011;34127;47.412;9.730;2023-09-08T00:12:24;12.50;;;10.20;;
48317;SDS011;34127;47.412;9.730;2023-09-08T00:14:50;12.75;;;10.65;;
48317;SDS011;34127;47.412;9.730;2023-09-08T00:17:16;12.63;;;10.35;;
48317;SDS011;34127;47.412;9.730;2023-09-08T00:19:42;13.60;;;10.80;;
48317;SDS011;34127;47.412;9.730;2023-09-08T00:22:09;14.75;;;10.95;;
48317;SDS011;34127;47.412;9.730;2023-09-08T00:24:36;12.35;;;10.95;;
48317;SDS011;34127;47.412;9.730;2023-09-08T00:27:02;14.88;;;11.30;;
48317;SDS011;34127;47.412;9.730;2023-09-08T00:29:28;15.10;;;11.55;;
48317;SDS011;34127;47.412;9.730;2023-09-08T00:31:54;12.38;;;10.77;;
48317;SDS011;34127;47.412;9.730;2023-09-08T00:34:20;13.43;;;11.20;;
48317;SDS011;34127;47.412;9.730;2023-09-08T00:36:46;13.98;;;11.07;;
48317;SDS011;34127;47.412;9.730;2023-09-08T00:39:13;13.55;;;11.25;;
48317;SDS011;34127;47.412;9.730;2023-09-08T00:41:39;13.70;;;11.20;;
48317;SDS011;34127;47.412;9.730;2023-09-08T00:44:05;14.18;;;11.77;;
48317;SDS011;34127;47.412;9.730;2023-09-08T00:46:33;14.50;;;11.52;;
48317;SDS011;34127;47.412;9.730;2023-09-08T00:49:00;14.30;;;11.30;;
48317;SDS011;34127;47.412;9.730;2023-09-08T00:51:26;15.75;;;12.00;;
48317;SDS011;34127;47.412;9.730;2023-09-08T00:53:53;15.30;;;11.77;;
48317;SDS011;34127;47.412;9.730;2023-09-08T00:56:19;14.23;;;11.80;;
48317;SDS011;34127;47.412;9.730;2023-09-08T00:58:46;14.30;;;11.85;;
48317;SDS011;34127;47.412;9.730;2023-09-08T01:01:13;15.65;;;12.60;;
48317;SDS011;34127;47.412;9.730;2023-09-08T01:03:39;15.52;;;12.10;;
48317;SDS011;34127;47.412;9.730;2023-09-08T01:06:05;15.63;;;13.07;;
48317;SDS011;34127;47.412;9.730;2023-09-08T01:08:32;17.27;;;12.93;;
48317;SDS011;34127;47.412;9.730;2023-09-08T01:11:00;19.73;;;15.57;;
48317;SDS011;34127;47.412;9.730;2023-09-08T01:13:26;16.67;;;14.60;;
48317;SDS011;34127;47.412;9.730;2023-09-08T01:15:53;18.45;;;14.82;;
48317;SDS011;34127;47.412;9.730;2023-09-08T01:18:19;17.55;;;14.82;;
48317;SDS011;34127;47.412;9.730;2023-09-08T01:23:18;17.27;;;14.98;;
48317;SDS011;34127;47.412;9.730;2023-09-08T01:25:55;16.02;;;14.10;;
48317;SDS011;34127;47.412;9.730;2023-09-08T01:28:23;16.85;;;13.60;;
48317;SDS011;34127;47.412;9.730;2023-09-08T01:30:49;15.70;;;13.13;;
48317;SDS011;34127;47.412;9.730;2023-09-08T01:33:16;16.27;;;13.15;;
48317;SDS011;34127;47.412;9.730;2023-09-08T01:35:43;16.55;;;13.30;;
48317;SDS011;34127;47.412;9.730;2023-09-08T01:38:09;19.10;;;14.30;;
48317;SDS011;34127;47.412;9.730;2023-09-08T01:40:35;17.13;;;13.63;;
48317;SDS011;34127;47.412;9.730;2023-09-08T01:43:01;16.20;;;13.25;;
48317;SDS011;34127;47.412;9.730;2023-09-08T01:45:28;17.65;;;12.65;;
48317;SDS011;34127;47.412;9.730;2023-09-08T01:47:54;18.77;;;13.70;;
48317;SDS011;34127;47.412;9.730;2023-09-08T01:50:20;15.32;;;13.38;;
48317;SDS011;34127;47.412;9.730;2023-09-08T01:52:49;16.85;;;12.95;;
48317;SDS011;34127;47.412;9.730;2023-09-08T01:55:15;16.13;;;12.75;;
48317;SDS011;34127;47.412;9.730;2023-09-08T01:57:42;15.32;;;12.55;;
48317;SDS011;34127;47.412;9.730;2023-09-08T02:00:08;20.25;;;13.60;;
48317;SDS011;34127;47.412;9.730;2023-09-08T02:02:35;17.67;;;13.25;;
48317;SDS011;34127;47.412;9.730;2023-09-08T02:05:01;16.80;;;13.32;;
48317;SDS011;34127;47.412;9.730;2023-09-08T02:07:27;16.85;;;14.05;;
48317;SDS011;34127;47.412;9.730;2023-09-08T02:09:53;20.73;;;14.23;;
48317;SDS011;34127;47.412;9.730;2023-09-08T02:12:20;18.27;;;14.15;;
48317;SDS011;34127;47.412;9.730;2023-09-08T02:14:46;18.08;;;14.45;;
48317;SDS011;34127;47.412;9.730;2023-09-08T02:17:13;19.10;;;15.75;;
48317;SDS011;34127;47.412;9.730;2023-09-08T02:19:39;20.80;;;15.77;;
48317;SDS011;34127;47.412;9.730;2023-09-08T02:22:05;17.33;;;14.25;;
48317;SDS011;34127;47.412;9.730;2023-09-08T02:24:31;16.95;;;13.73;;
48317;SDS011;34127;47.412;9.730;2023-09-08T02:26:57;20.45;;;14.30;;
48317;SDS011;34127;47.412;9.730;2023-09-08T02:29:24;22.25;;;14.95;;
48317;SDS011;34127;47.412;9.730;2023-09-08T02:31:50;18.05;;;14.93;;
48317;SDS011;34127;47.412;9.730;2023-09-08T02:34:16;20.02;;;15.63;;
48317;SDS011;34127;47.412;9.730;2023-09-08T02:36:42;17.45;;;14.45;;
48317;SDS011;34127;47.412;9.730;2023-09-08T02:39:08;20.00;;;14.85;;
48317;SDS011;34127;47.412;9.730;2023-09-08T02:41:35;19.25;;;15.35;;
48317;SDS011;34127;47.412;9.730;2023-09-08T02:44:02;21.50;;;16.23;;
48317;SDS011;34127;47.412;9.730;2023-09-08T02:46:28;17.83;;;14.63;;
48317;SDS011;34127;47.412;9.730;2023-09-08T02:48:54;18.88;;;15.27;;
48317;SDS011;34127;47.412;9.730;2023-09-08T02:51:21;20.13;;;16.25;;
48317;SDS011;34127;47.412;9.730;2023-09-08T02:53:47;18.17;;;15.07;;
48317;SDS011;34127;47.412;9.730;2023-09-08T02:56:13;23.55;;;16.65;;
48317;SDS011;34127;47.412;9.730;2023-09-08T02:58:39;23.60;;;16.13;;
48317;SDS011;34127;47.412;9.730;2023-09-08T03:01:24;20.27;;;16.25;;
48317;SDS011;34127;47.412;9.730;2023-09-08T03:03:50;19.52;;;15.40;;
48317;SDS011;34127;47.412;9.730;2023-09-08T03:06:17;19.00;;;16.02;;
48317;SDS011;34127;47.412;9.730;2023-09-08T03:08:45;21.55;;;16.45;;
48317;SDS011;34127;47.412;9.730;2023-09-08T03:11:12;20.58;;;16.50;;
48317;SDS011;34127;47.412;9.730;2023-09-08T03:13:38;22.17;;;17.30;;
48317;SDS011;34127;47.412;9.730;2023-09-08T03:16:04;23.13;;;17.58;;
48317;SDS011;34127;47.412;9.730;2023-09-08T03:18:32;24.40;;;17.92;;
48317;SDS011;34127;47.412;9.730;2023-09-08T03:20:58;24.25;;;19.35;;
48317;SDS011;34127;47.412;9.730;2023-09-08T03:23:26;23.35;;;17.75;;
48317;SDS011;34127;47.412;9.730;2023-09-08T03:25:52;24.08;;;18.20;;
48317;SDS011;34127;47.412;9.730;2023-09-08T03:28:19;26.08;;;20.90;;
48317;SDS011;34127;47.412;9.730;2023-09-08T03:30:45;28.77;;;22.10;;
48317;SDS011;34127;47.412;9.730;2023-09-08T03:33:14;24.25;;;19.65;;
48317;SDS011;34127;47.412;9.730;2023-09-08T03:35:40;27.55;;;21.00;;
48317;SDS011;34127;47.412;9.730;2023-09-08T03:38:09;26.38;;;18.80;;
48317;SDS011;34127;47.412;9.730;2023-09-08T03:40:36;22.17;;;17.80;;
48317;SDS011;34127;47.412;9.730;2023-09-08T03:43:03;20.45;;;17.50;;
48317;SDS011;34127;47.412;9.730;2023-09-08T03:45:29;21.65;;;17.65;;
48317;SDS011;34127;47.412;9.730;2023-09-08T03:47:55;19.88;;;16.20;;
48317;SDS011;34127;47.412;9.730;2023-09-08T03:50:21;23.55;;;17.15;;
48317;SDS011;34127;47.412;9.730;2023-09-08T03:52:47;23.17;;;16.88;;
48317;SDS011;34127;47.412;9.730;2023-09-08T03:55:13;25.13;;;18.60;;
48317;SDS011;34127;47.412;9.730;2023-09-08T03:57:39;22.45;;;18.23;;
48317;SDS011;34127;47.412;9.730;2023-09-08T04:00:06;25.02;;;17.75;;
48317;SDS011;34127;47.412;9.730;2023-09-08T04:02:32;22.05;;;18.40;;
48317;SDS011;34127;47.412;9.730;2023-09-08T04:04:58;24.98;;;19.42;;
48317;SDS011;34127;47.412;9.730;2023-09-08T04:07:25;26.83;;;20.63;;
48317;SDS011;34127;47.412;9.730;2023-09-08T04:09:51;28.95;;;20.10;;
48317;SDS011;34127;47.412;9.730;2023-09-08T04:12:17;26.05;;;21.40;;
48317;SDS011;34127;47.412;9.730;2023-09-08T04:14:43;29.88;;;22.42;;
48317;SDS011;34127;47.412;9.730;2023-09-08T04:17:09;35.63;;;24.83;;
48317;SDS011;34127;47.412;9.730;2023-09-08T04:19:35;43.50;;;25.55;;
48317;SDS011;34127;47.412;9.730;2023-09-08T04:22:02;32.53;;;24.35;;
48317;SDS011;34127;47.412;9.730;2023-09-08T04:24:28;32.58;;;23.45;;
48317;SDS011;34127;47.412;9.730;2023-09-08T04:26:55;33.50;;;24.85;;
48317;SDS011;34127;47.412;9.730;2023-09-08T04:29:21;34.58;;;25.17;;
48317;SDS011;34127;47.412;9.730;2023-09-08T04:31:47;33.95;;;26.02;;
48317;SDS011;34127;47.412;9.730;2023-09-08T04:34:13;31.77;;;24.17;;
48317;SDS011;34127;47.412;9.730;2023-09-08T04:36:39;36.60;;;27.15;;
48317;SDS011;34127;47.412;9.730;2023-09-08T04:39:06;33.38;;;24.40;;
48317;SDS011;34127;47.412;9.730;2023-09-08T04:41:35;33.72;;;24.92;;
48317;SDS011;34127;47.412;9.730;2023-09-08T04:44:02;33.40;;;24.10;;
48317;SDS011;34127;47.412;9.730;2023-09-08T04:46:28;32.80;;;23.38;;
48317;SDS011;34127;47.412;9.730;2023-09-08T04:48:54;34.90;;;23.50;;
48317;SDS011;34127;47.412;9.730;2023-09-08T04:51:20;29.83;;;21.80;;
48317;SDS011;34127;47.412;9.730;2023-09-08T04:53:46;30.00;;;22.02;;
48317;SDS011;34127;47.412;9.730;2023-09-08T04:56:13;27.30;;;21.40;;
48317;SDS011;34127;47.412;9.730;2023-09-08T04:58:39;25.52;;;21.05;;
48317;SDS011;34127;47.412;9.730;2023-09-08T05:01:05;25.35;;;20.52;;
48317;SDS011;34127;47.412;9.730;2023-09-08T05:03:31;28.13;;;20.23;;
48317;SDS011;34127;47.412;9.730;2023-09-08T05:05:57;27.60;;;21.25;;
48317;SDS011;34127;47.412;9.730;2023-09-08T05:08:24;27.17;;;21.48;;
48317;SDS011;34127;47.412;9.730;2023-09-08T05:10:50;27.88;;;20.90;;
48317;SDS011;34127;47.412;9.730;2023-09-08T05:13:16;28.63;;;21.65;;
48317;SDS011;34127;47.412;9.730;2023-09-08T05:15:43;27.05;;;21.35;;
48317;SDS011;34127;47.412;9.730;2023-09-08T05:18:13;27.42;;;20.45;;
48317;SDS011;34127;47.412;9.730;2023-09-08T05:20:39;29.42;;;20.75;;
48317;SDS011;34127;47.412;9.730;2023-09-08T05:23:05;26.25;;;19.73;;
48317;SDS011;34127;47.412;9.730;2023-09-08T05:25:32;29.35;;;20.58;;
48317;SDS011;34127;47.412;9.730;2023-09-08T05:27:58;29.33;;;20.45;;
48317;SDS011;34127;47.412;9.730;2023-09-08T05:30:25;28.33;;;19.75;;
48317;SDS011;34127;47.412;9.730;2023-09-08T05:32:51;24.80;;;18.33;;
48317;SDS011;34127;47.412;9.730;2023-09-08T05:35:18;26.70;;;18.00;;
48317;SDS011;34127;47.412;9.730;2023-09-08T05:37:44;25.73;;;17.70;;
48317;SDS011;34127;47.412;9.730;2023-09-08T05:40:11;23.02;;;16.63;;
48317;SDS011;34127;47.412;9.730;2023-09-08T05:42:37;24.88;;;17.35;;
48317;SDS011;34127;47.412;9.730;2023-09-08T05:45:04;21.08;;;16.50;;
48317;SDS011;34127;47.412;9.730;2023-09-08T05:47:38;21.30;;;15.88;;
48317;SDS011;34127;47.412;9.730;2023-09-08T05:50:04;18.13;;;14.65;;
48317;SDS011;34127;47.412;9.730;2023-09-08T05:52:30;19.35;;;14.40;;
48317;SDS011;34127;47.412;9.730;2023-09-08T05:54:58;19.48;;;14.43;;
48317;SDS011;34127;47.412;9.730;2023-09-08T05:57:24;25.60;;;14.18;;
48317;SDS011;34127;47.412;9.730;2023-09-08T05:59:50;16.00;;;12.50;;
48317;SDS011;34127;47.412;9.730;2023-09-08T06:02:16;15.00;;;12.43;;
48317;SDS011;34127;47.412;9.730;2023-09-08T06:04:42;15.38;;;11.85;;
48317;SDS011;34127;47.412;9.730;2023-09-08T06:07:09;15.18;;;11.80;;
48317;SDS011;34127;47.412;9.730;2023-09-08T06:09:35;16.70;;;11.45;;
48317;SDS011;34127;47.412;9.730;2023-09-08T06:12:01;15.35;;;11.18;;
48317;SDS011;34127;47.412;9.730;2023-09-08T06:14:27;13.68;;;10.45;;
48317;SDS011;34127;47.412;9.730;2023-09-08T06:16:53;13.80;;;10.52;;
48317;SDS011;34127;47.412;9.730;2023-09-08T06:19:19;13.15;;;10.18;;
48317;SDS011;34127;47.412;9.730;2023-09-08T06:21:45;15.02;;;11.07;;
48317;SDS011;34127;47.412;9.730;2023-09-08T06:24:11;11.27;;;9.80;;
48317;SDS011;34127;47.412;9.730;2023-09-08T06:26:38;14.00;;;10.45;;
48317;SDS011;34127;47.412;9.730;2023-09-08T06:29:04;11.95;;;9.88;;
48317;SDS011;34127;47.412;9.730;2023-09-08T06:31:30;13.25;;;10.18;;
48317;SDS011;34127;47.412;9.730;2023-09-08T06:33:56;14.05;;;10.43;;
48317;SDS011;34127;47.412;9.730;2023-09-08T06:36:22;13.57;;;10.00;;
48317;SDS011;34127;47.412;9.730;2023-09-08T06:38:49;15.32;;;9.73;;
48317;SDS011;34127;47.412;9.730;2023-09-08T06:41:15;12.45;;;9.90;;
48317;SDS011;34127;47.412;9.730;2023-09-08T06:43:42;13.18;;;9.95;;
48317;SDS011;34127;47.412;9.730;2023-09-08T06:46:08;17.27;;;10.77;;
48317;SDS011;34127;47.412;9.730;2023-09-08T06:48:34;14.13;;;10.77;;
48317;SDS011;34127;47.412;9.730;2023-09-08T06:51:01;12.00;;;9.57;;
48317;SDS011;34127;47.412;9.730;2023-09-08T06:53:27;12.35;;;9.07;;
48317;SDS011;34127;47.412;9.730;2023-09-08T06:55:53;14.52;;;9.45;;
48317;SDS011;34127;47.412;9.730;2023-09-08T06:58:19;12.57;;;9.13;;
48317;SDS011;34127;47.412;9.730;2023-09-08T07:00:45;13.30;;;9.45;;
48317;SDS011;34127;47.412;9.730;2023-09-08T07:03:12;13.52;;;9.77;;
48317;SDS011;34127;47.412;9.730;2023-09-08T07:05:41;14.60;;;9.32;;
48317;SDS011;34127;47.412;9.730;2023-09-08T07:08:07;12.55;;;9.85;;
48317;SDS011;34127;47.412;9.730;2023-09-08T07:10:33;12.55;;;8.75;;
48317;SDS011;34127;47.412;9.730;2023-09-08T07:13:01;10.75;;;8.57;;
48317;SDS011;34127;47.412;9.730;2023-09-08T07:15:28;10.57;;;8.80;;
48317;SDS011;34127;47.412;9.730;2023-09-08T07:17:55;12.63;;;8.57;;
48317;SDS011;34127;47.412;9.730;2023-09-08T07:20:22;9.45;;;8.45;;
48317;SDS011;34127;47.412;9.730;2023-09-08T07:22:50;14.48;;;9.23;;
48317;SDS011;34127;47.412;9.730;2023-09-08T07:25:16;10.35;;;8.60;;
48317;SDS011;34127;47.412;9.730;2023-09-08T07:27:42;10.80;;;8.80;;
48317;SDS011;34127;47.412;9.730;2023-09-08T07:30:13;12.45;;;8.70;;
48317;SDS011;34127;47.412;9.730;2023-09-08T07:32:43;10.23;;;8.05;;
48317;SDS011;34127;47.412;9.730;2023-09-08T07:35:15;10.18;;;8.43;;
48317;SDS011;34127;47.412;9.730;2023-09-08T07:37:42;11.82;;;8.15;;
48317;SDS011;34127;47.412;9.730;2023-09-08T07:40:09;10.90;;;8.50;;
48317;SDS011;34127;47.412;9.730;2023-09-08T07:42:35;11.02;;;7.88;;
48317;SDS011;34127;47.412;9.730;2023-09-08T07:45:02;9.05;;;7.80;;
48317;SDS011;34127;47.412;9.730;2023-09-08T07:47:28;12.63;;;9.70;;
48317;SDS011;34127;47.412;9.730;2023-09-08T07:50:12;10.40;;;8.77;;
48317;SDS011;34127;47.412;9.730;2023-09-08T07:52:43;11.25;;;7.90;;
48317;SDS011;34127;47.412;9.730;2023-09-08T07:55:10;13.85;;;7.97;;
48317;SDS011;34127;47.412;9.730;2023-09-08T07:57:36;9.93;;;7.82;;
48317;SDS011;34127;47.412;9.730;2023-09-08T08:00:04;11.05;;;8.48;;
48317;SDS011;34127;47.412;9.730;2023-09-08T08:02:31;11.25;;;8.40;;
48317;SDS011;34127;47.412;9.730;2023-09-08T08:04:57;10.20;;;8.07;;
48317;SDS011;34127;47.412;9.730;2023-09-08T08:07:23;10.88;;;8.13;;
48317;SDS011;34127;47.412;9.730;2023-09-08T08:09:49;11.95;;;7.68;;
48317;SDS011;34127;47.412;9.730;2023-09-08T08:12:22;12.88;;;8.23;;
48317;SDS011;34127;47.412;9.730;2023-09-08T08:14:48;12.85;;;8.85;;
48317;SDS011;34127;47.412;9.730;2023-09-08T08:17:14;16.33;;;9.80;;
48317;SDS011;34127;47.412;9.730;2023-09-08T08:19:42;11.73;;;7.82;;
48317;SDS011;34127;47.412;9.730;2023-09-08T08:22:09;17.23;;;9.90;;
48317;SDS011;34127;47.412;9.730;2023-09-08T08:24:35;11.48;;;7.68;;
48317;SDS011;34127;47.412;9.730;2023-09-08T08:27:01;10.13;;;7.97;;
48317;SDS011;34127;47.412;9.730;2023-09-08T08:29:28;13.57;;;8.40;;
48317;SDS011;34127;47.412;9.730;2023-09-08T08:31:54;13.30;;;8.48;;
48317;SDS011;34127;47.412;9.730;2023-09-08T08:34:20;13.77;;;8.45;;
48317;SDS011;34127;47.412;9.730;2023-09-08T08:36:47;10.30;;;8.20;;
48317;SDS011;34127;47.412;9.730;2023-09-08T08:39:13;15.55;;;8.55;;
48317;SDS011;34127;47.412;9.730;2023-09-08T08:41:40;11.27;;;7.90;;
48317;SDS011;34127;47.412;9.730;2023-09-08T08:44:07;9.77;;;7.60;;
48317;SDS011;34127;47.412;9.730;2023-09-08T08:46:36;11.60;;;8.25;;
48317;SDS011;34127;47.412;9.730;2023-09-08T08:49:03;11.05;;;8.00;;
48317;SDS011;34127;47.412;9.730;2023-09-08T08:51:30;14.25;;;8.00;;
48317;SDS011;34127;47.412;9.730;2023-09-08T08:53:57;15.27;;;8.20;;
48317;SDS011;34127;47.412;9.730;2023-09-08T08:56:30;11.32;;;7.70;;
48317;SDS011;34127;47.412;9.730;2023-09-08T08:58:57;11.52;;;7.68;;
48317;SDS011;34127;47.412;9.730;2023-09-08T09:01:24;10.63;;;7.55;;
48317;SDS011;34127;47.412;9.730;2023-09-08T09:03:51;10.95;;;7.72;;
48317;SDS011;34127;47.412;9.730;2023-09-08T09:06:18;13.07;;;8.00;;
48317;SDS011;34127;47.412;9.730;2023-09-08T09:08:45;12.98;;;7.80;;
48317;SDS011;34127;47.412;9.730;2023-09-08T09:11:12;10.75;;;7.53;;
48317;SDS011;34127;47.412;9.730;2023-09-08T09:13:38;11.27;;;8.07;;
48317;SDS011;34127;47.412;9.730;2023-09-08T09:16:04;10.43;;;7.72;;
48317;SDS011;34127;47.412;9.730;2023-09-08T09:18:48;13.68;;;8.02;;
48317;SDS011;34127;47.412;9.730;2023-09-08T09:21:18;8.80;;;7.18;;
48317;SDS011;34127;47.412;9.730;2023-09-08T09:23:44;10.63;;;7.38;;
48317;SDS011;34127;47.412;9.730;2023-09-08T09:26:10;11.73;;;8.07;;
48317;SDS011;34127;47.412;9.730;2023-09-08T09:28:48;11.20;;;7.70;;
48317;SDS011;34127;47.412;9.730;2023-09-08T09:31:17;11.13;;;8.13;;
48317;SDS011;34127;47.412;9.730;2023-09-08T09:33:43;13.18;;;8.95;;
48317;SDS011;34127;47.412;9.730;2023-09-08T09:36:10;11.80;;;7.97;;
48317;SDS011;34127;47.412;9.730;2023-09-08T09:38:46;11.40;;;8.05;;
48317;SDS011;34127;47.412;9.730;2023-09-08T09:41:13;10.07;;;8.45;;
48317;SDS011;34127;47.412;9.730;2023-09-08T09:43:40;9.90;;;8.70;;
48317;SDS011;34127;47.412;9.730;2023-09-08T09:46:07;11.80;;;9.18;;
48317;SDS011;34127;47.412;9.730;2023-09-08T09:48:36;12.88;;;8.77;;
48317;SDS011;34127;47.412;9.730;2023-09-08T09:51:15;12.55;;;8.40;;
48317;SDS011;34127;47.412;9.730;2023-09-08T09:53:45;11.65;;;8.32;;
48317;SDS011;34127;47.412;9.730;2023-09-08T09:56:14;12.07;;;8.88;;
48317;SDS011;34127;47.412;9.730;2023-09-08T09:58:42;12.07;;;8.73;;
48317;SDS011;34127;47.412;9.730;2023-09-08T10:01:10;12.88;;;8.65;;
48317;SDS011;34127;47.412;9.730;2023-09-08T10:03:39;13.77;;;8.60;;
48317;SDS011;34127;47.412;9.730;2023-09-08T10:06:06;12.07;;;8.68;;
48317;SDS011;34127;47.412;9.730;2023-09-08T10:08:33;12.55;;;7.85;;
48317;SDS011;34127;47.412;9.730;2023-09-08T10:11:05;13.68;;;7.97;;
48317;SDS011;34127;47.412;9.730;2023-09-08T10:13:31;20.65;;;8.38;;
48317;SDS011;34127;47.412;9.730;2023-09-08T10:15:59;14.82;;;8.68;;
48317;SDS011;34127;47.412;9.730;2023-09-08T10:18:28;12.35;;;8.90;;
48317;SDS011;34127;47.412;9.730;2023-09-08T10:20:55;13.45;;;8.40;;
48317;SDS011;34127;47.412;9.730;2023-09-08T10:23:27;12.85;;;8.88;;
48317;SDS011;34127;47.412;9.730;2023-09-08T10:25:58;13.90;;;9.52;;
48317;SDS011;34127;47.412;9.730;2023-09-08T10:28:25;15.02;;;10.00;;
48317;SDS011;34127;47.412;9.730;2023-09-08T10:30:52;11.00;;;8.98;;
48317;SDS011;34127;47.412;9.730;2023-09-08T10:33:19;14.05;;;8.93;;
48317;SDS011;34127;47.412;9.730;2023-09-08T10:35:46;11.95;;;8.80;;
48317;SDS011;34127;47.412;9.730;2023-09-08T10:38:22;13.05;;;8.73;;
48317;SDS011;34127;47.412;9.730;2023-09-08T10:40:51;13.00;;;9.10;;
48317;SDS011;34127;47.412;9.730;2023-09-08T10:43:18;13.32;;;8.52;;
48317;SDS011;34127;47.412;9.730;2023-09-08T10:45:45;12.95;;;9.18;;
48317;SDS011;34127;47.412;9.730;2023-09-08T10:48:12;14.93;;;9.40;;
48317;SDS011;34127;47.412;9.730;2023-09-08T10:50:39;15.65;;;10.30;;
48317;SDS011;34127;47.412;9.730;2023-09-08T10:55:53;12.52;;;8.77;;
48317;SDS011;34127;47.412;9.730;2023-09-08T10:58:29;13.10;;;8.88;;
48317;SDS011;34127;47.412;9.730;2023-09-08T11:00:58;11.23;;;8.82;;
48317;SDS011;34127;47.412;9.730;2023-09-08T11:06:04;13.63;;;9.10;;
48317;SDS011;34127;47.412;9.730;2023-09-08T11:08:32;11.40;;;8.88;;
48317;SDS011;34127;47.412;9.730;2023-09-08T11:11:00;11.90;;;8.48;;
48317;SDS011;34127;47.412;9.730;2023-09-08T11:13:28;11.98;;;8.32;;
48317;SDS011;34127;47.412;9.730;2023-09-08T11:15:54;10.32;;;9.02;;
48317;SDS011;34127;47.412;9.730;2023-09-08T11:18:27;11.25;;;8.32;;
48317;SDS011;34127;47.412;9.730;2023-09-08T11:20:53;15.13;;;9.68;;
48317;SDS011;34127;47.412;9.730;2023-09-08T11:23:22;11.90;;;8.57;;
48317;SDS011;34127;47.412;9.730;2023-09-08T11:25:50;11.38;;;8.73;;
48317;SDS011;34127;47.412;9.730;2023-09-08T11:28:16;11.38;;;9.32;;
48317;SDS011;34127;47.412;9.730;2023-09-08T11:30:45;13.68;;;9.27;;
48317;SDS011;34127;47.412;9.730;2023-09-08T11:33:15;12.15;;;9.32;;
48317;SDS011;34127;47.412;9.730;2023-09-08T11:35:41;11.05;;;8.65;;
48317;SDS011;34127;47.412;9.730;2023-09-08T11:38:10;16.17;;;9.32;;
48317;SDS011;34127;47.412;9.730;2023-09-08T11:40:37;11.38;;;8.45;;
48317;SDS011;34127;47.412;9.730;2023-09-08T11:43:03;12.07;;;8.95;;
48317;SDS011;34127;47.412;9.730;2023-09-08T11:45:31;15.25;;;9.57;;
48317;SDS011;34127;47.412;9.730;2023-09-08T11:48:00;9.23;;;8.15;;
48317;SDS011;34127;47.412;9.730;2023-09-08T11:50:26;9.10;;;8.02;;
48317;SDS011;34127;47.412;9.730;2023-09-08T11:52:55;10.73;;;8.15;;
48317;SDS011;34127;47.412;9.730;2023-09-08T11:55:24;10.13;;;8.63;;
48317;SDS011;34127;47.412;9.730;2023-09-08T11:57:54;9.88;;;8.07;;
48317;SDS011;34127;47.412;9.730;2023-09-08T12:00:25;9.30;;;8.30;;
48317;SDS011;34127;47.412;9.730;2023-09-08T12:02:52;14.35;;;9.10;;
48317;SDS011;34127;47.412;9.730;2023-09-08T12:05:25;9.60;;;8.23;;
48317;SDS011;34127;47.412;9.730;2023-09-08T12:07:52;12.38;;;7.65;;
48317;SDS011;34127;47.412;9.730;2023-09-08T12:10:18;9.73;;;7.82;;
48317;SDS011;34127;47.412;9.730;2023-09-08T12:12:45;10.57;;;7.53;;
48317;SDS011;34127;47.412;9.730;2023-09-08T12:15:28;9.10;;;7.70;;
48317;SDS011;34127;47.412;9.730;2023-09-08T12:17:56;12.38;;;8.00;;
48317;SDS011;34127;47.412;9.730;2023-09-08T12:20:23;10.15;;;8.25;;
48317;SDS011;34127;47.412;9.730;2023-09-08T12:22:49;15.25;;;8.43;;
48317;SDS011;34127;47.412;9.730;2023-09-08T12:25:16;9.85;;;7.65;;
48317;SDS011;34127;47.412;9.730;2023-09-08T12:27:44;12.90;;;7.60;;
48317;SDS011;34127;47.412;9.730;2023-09-08T12:30:16;13.73;;;7.60;;
48317;SDS011;34127;47.412;9.730;2023-09-08T12:32:44;11.85;;;7.93;;
48317;SDS011;34127;47.412;9.730;2023-09-08T12:35:11;8.90;;;7.78;;
48317;SDS011;34127;47.412;9.730;2023-09-08T12:37:38;12.65;;;8.55;;
48317;SDS011;34127;47.412;9.730;2023-09-08T12:40:04;12.55;;;7.60;;
48317;SDS011;34127;47.412;9.730;2023-09-08T12:42:31;13.00;;;7.25;;
48317;SDS011;34127;47.412;9.730;2023-09-08T12:44:57;9.50;;;7.32;;
48317;SDS011;34127;47.412;9.730;2023-09-08T12:47:23;9.68;;;7.55;;
48317;SDS011;34127;47.412;9.730;2023-09-08T12:49:49;9.93;;;7.57;;
48317;SDS011;34127;47.412;9.730;2023-09-08T12:52:16;13.55;;;8.07;;
48317;SDS011;34127;47.412;9.730;2023-09-08T12:54:43;10.18;;;7.40;;
48317;SDS011;34127;47.412;9.730;2023-09-08T12:57:09;12.45;;;7.32;;
48317;SDS011;34127;47.412;9.730;2023-09-08T12:59:35;10.82;;;6.78;;
48317;SDS011;34127;47.412;9.730;2023-09-08T13:02:01;8.63;;;6.90;;
48317;SDS011;34127;47.412;9.730;2023-09-08T13:04:28;11.57;;;6.95;;
48317;SDS011;34127;47.412;9.730;2023-09-08T13:06:56;10.75;;;7.78;;
48317;SDS011;34127;47.412;9.730;2023-09-08T13:09:23;10.23;;;7.20;;
48317;SDS011;34127;47.412;9.730;2023-09-08T13:11:50;11.00;;;7.35;;
48317;SDS011;34127;47.412;9.730;2023-09-08T13:14:17;11.07;;;7.05;;
48317;SDS011;34127;47.412;9.730;2023-09-08T13:16:43;13.88;;;7.80;;
48317;SDS011;34127;47.412;9.730;2023-09-08T13:19:10;9.90;;;7.18;;
48317;SDS011;34127;47.412;9.730;2023-09-08T13:21:37;10.93;;;6.68;;
48317;SDS011;34127;47.412;9.730;2023-09-08T13:24:05;10.02;;;6.95;;
48317;SDS011;34127;47.412;9.730;2023-09-08T13:26:33;11.13;;;6.50;;
48317;SDS011;34127;47.412;9.730;2023-09-08T13:29:00;9.50;;;6.68;;
48317;SDS011;34127;47.412;9.730;2023-09-08T13:31:26;11.35;;;5.95;;
48317;SDS011;34127;47.412;9.730;2023-09-08T13:33:53;9.55;;;6.95;;
48317;SDS011;34127;47.412;9.730;2023-09-08T13:36:19;11.98;;;6.78;;
48317;SDS011;34127;47.412;9.730;2023-09-08T13:38:46;11.68;;;6.78;;
48317;SDS011;34127;47.412;9.730;2023-09-08T13:41:13;8.00;;;6.05;;
48317;SDS011;34127;47.412;9.730;2023-09-08T13:43:39;9.07;;;6.75;;
48317;SDS011;34127;47.412;9.730;2023-09-08T13:46:05;8.13;;;6.20;;
48317;SDS011;34127;47.412;9.730;2023-09-08T13:48:32;11.23;;;6.53;;
48317;SDS011;34127;47.412;9.730;2023-09-08T13:51:02;9.60;;;6.10;;
48317;SDS011;34127;47.412;9.730;2023-09-08T13:53:29;10.07;;;6.28;;
48317;SDS011;34127;47.412;9.730;2023-09-08T13:55:56;9.18;;;6.30;;
48317;SDS011;34127;47.412;9.730;2023-09-08T13:58:22;12.55;;;6.45;;
48317;SDS011;34127;47.412;9.730;2023-09-08T14:00:49;12.98;;;6.78;;
48317;SDS011;34127;47.412;9.730;2023-09-08T14:03:19;8.70;;;5.60;;
48317;SDS011;34127;47.412;9.730;2023-09-08T14:05:45;8.20;;;6.47;;
48317;SDS011;34127;47.412;9.730;2023-09-08T14:08:12;9.85;;;5.78;;
48317;SDS011;34127;47.412;9.730;2023-09-08T14:10:39;9.85;;;5.97;;
48317;SDS011;34127;47.412;9.730;2023-09-08T14:13:05;10.88;;;6.18;;
48317;SDS011;34127;47.412;9.730;2023-09-08T14:15:32;9.00;;;6.30;;
48317;SDS011;34127;47.412;9.730;2023-09-08T14:17:58;10.43;;;6.03;;
48317;SDS011;34127;47.412;9.730;2023-09-08T14:20:25;8.10;;;5.72;;
48317;SDS011;34127;47.412;9.730;2023-09-08T14:22:52;8.98;;;6.20;;
48317;SDS011;34127;47.412;9.730;2023-09-08T14:25:18;8.23;;;5.43;;
48317;SDS011;34127;47.412;9.730;2023-09-08T14:27:45;10.45;;;5.57;;
48317;SDS011;34127;47.412;9.730;2023-09-08T14:30:12;6.93;;;5.70;;
48317;SDS011;34127;47.412;9.730;2023-09-08T14:32:39;11.10;;;5.88;;
48317;SDS011;34127;47.412;9.730;2023-09-08T14:35:06;11.35;;;5.95;;
48317;SDS011;34127;47.412;9.730;2023-09-08T14:37:33;8.55;;;6.40;;